Aurora, Nebraska
Current Conditions -  °F | °C
As of 10:35 AM on Wednesday 22 Oct 2014 (Local Time) from KAUH Reporting Station
Clear Clear  
Wind Chill: 65°   Ceiling: Unl
Heat Index: 65°   Visibility: 10mi
Dew Point: 54°   Wind: 14mph
Humidity: 68%   Direction: 180°S
Pressure: 30.03"   Gusts: 20mph
Location:  40.87°N, 98°W
Report Text: KAUH 221535Z AUTO 18012G17KT 10SM CLR 18/12 A3003 RMK AO2 T01810122
Loading
Personal Weather Stations






























Interactive Weather Map New forecast layout! Learn more

10-Day Weather Forecast

Advertisements
Track Severe Weather on mobile